sensor_id;sensor_type;location;lat;lon;timestamp;P1;durP1;ratioP1;P2;durP2;ratioP2
549;SDS011;20066;48.764;9.176;2023-03-01T00:02:27;32.58;;;16.50;;
549;SDS011;20066;48.764;9.176;2023-03-01T00:04:55;33.30;;;16.23;;
549;SDS011;20066;48.764;9.176;2023-03-01T00:07:23;38.10;;;17.05;;
549;SDS011;20066;48.764;9.176;2023-03-01T00:09:51;31.80;;;16.85;;
549;SDS011;20066;48.764;9.176;2023-03-01T00:12:19;34.53;;;16.60;;
549;SDS011;20066;48.764;9.176;2023-03-01T00:14:47;32.35;;;17.80;;
549;SDS011;20066;48.764;9.176;2023-03-01T00:17:15;31.92;;;16.33;;
549;SDS011;20066;48.764;9.176;2023-03-01T00:19:44;37.90;;;19.08;;
549;SDS011;20066;48.764;9.176;2023-03-01T00:22:12;32.42;;;16.75;;
549;SDS011;20066;48.764;9.176;2023-03-01T00:24:40;29.95;;;16.85;;
549;SDS011;20066;48.764;9.176;2023-03-01T00:27:08;34.22;;;17.25;;
549;SDS011;20066;48.764;9.176;2023-03-01T00:29:36;31.10;;;17.20;;
549;SDS011;20066;48.764;9.176;2023-03-01T00:32:04;33.35;;;17.20;;
549;SDS011;20066;48.764;9.176;2023-03-01T00:34:32;41.13;;;17.15;;
549;SDS011;20066;48.764;9.176;2023-03-01T00:37:01;31.15;;;16.30;;
549;SDS011;20066;48.764;9.176;2023-03-01T00:39:31;35.05;;;17.15;;
549;SDS011;20066;48.764;9.176;2023-03-01T00:41:59;31.38;;;17.92;;
549;SDS011;20066;48.764;9.176;2023-03-01T00:44:27;32.35;;;17.67;;
549;SDS011;20066;48.764;9.176;2023-03-01T00:46:55;32.15;;;17.40;;
549;SDS011;20066;48.764;9.176;2023-03-01T00:49:23;33.58;;;17.73;;
549;SDS011;20066;48.764;9.176;2023-03-01T00:51:54;35.00;;;17.95;;
549;SDS011;20066;48.764;9.176;2023-03-01T00:54:23;32.42;;;17.13;;
549;SDS011;20066;48.764;9.176;2023-03-01T00:56:51;28.17;;;17.00;;
549;SDS011;20066;48.764;9.176;2023-03-01T00:59:19;30.58;;;18.40;;
549;SDS011;20066;48.764;9.176;2023-03-01T01:01:47;26.85;;;15.35;;
549;SDS011;20066;48.764;9.176;2023-03-01T01:04:15;31.13;;;16.90;;
549;SDS011;20066;48.764;9.176;2023-03-01T01:06:44;31.40;;;17.35;;
549;SDS011;20066;48.764;9.176;2023-03-01T01:09:14;34.78;;;20.02;;
549;SDS011;20066;48.764;9.176;2023-03-01T01:11:46;29.85;;;16.90;;
549;SDS011;20066;48.764;9.176;2023-03-01T01:14:15;28.20;;;16.98;;
549;SDS011;20066;48.764;9.176;2023-03-01T01:16:43;30.00;;;17.90;;
549;SDS011;20066;48.764;9.176;2023-03-01T01:19:11;31.45;;;18.50;;
549;SDS011;20066;48.764;9.176;2023-03-01T01:21:42;33.60;;;16.92;;
549;SDS011;20066;48.764;9.176;2023-03-01T01:24:11;31.67;;;17.15;;
549;SDS011;20066;48.764;9.176;2023-03-01T01:26:39;30.70;;;16.98;;
549;SDS011;20066;48.764;9.176;2023-03-01T01:29:09;31.95;;;18.15;;
549;SDS011;20066;48.764;9.176;2023-03-01T01:31:38;35.65;;;18.85;;
549;SDS011;20066;48.764;9.176;2023-03-01T01:34:08;31.00;;;16.52;;
549;SDS011;20066;48.764;9.176;2023-03-01T01:36:41;28.90;;;17.80;;
549;SDS011;20066;48.764;9.176;2023-03-01T01:39:09;32.25;;;18.88;;
549;SDS011;20066;48.764;9.176;2023-03-01T01:41:39;32.25;;;17.65;;
549;SDS011;20066;48.764;9.176;2023-03-01T01:44:17;28.58;;;17.67;;
549;SDS011;20066;48.764;9.176;2023-03-01T01:46:47;33.42;;;18.15;;
549;SDS011;20066;48.764;9.176;2023-03-01T01:49:20;35.50;;;18.88;;
549;SDS011;20066;48.764;9.176;2023-03-01T01:51:56;29.42;;;17.85;;
549;SDS011;20066;48.764;9.176;2023-03-01T01:54:30;33.80;;;18.50;;
549;SDS011;20066;48.764;9.176;2023-03-01T01:57:06;35.55;;;18.55;;
549;SDS011;20066;48.764;9.176;2023-03-01T01:59:39;30.60;;;16.83;;
549;SDS011;20066;48.764;9.176;2023-03-01T02:02:10;31.38;;;17.70;;
549;SDS011;20066;48.764;9.176;2023-03-01T02:04:40;30.98;;;17.10;;
549;SDS011;20066;48.764;9.176;2023-03-01T02:07:10;30.00;;;16.65;;
549;SDS011;20066;48.764;9.176;2023-03-01T02:09:43;36.60;;;17.30;;
549;SDS011;20066;48.764;9.176;2023-03-01T02:12:14;33.20;;;17.73;;
549;SDS011;20066;48.764;9.176;2023-03-01T02:14:44;29.33;;;16.58;;
549;SDS011;20066;48.764;9.176;2023-03-01T02:17:12;31.50;;;18.35;;
549;SDS011;20066;48.764;9.176;2023-03-01T02:19:46;38.17;;;16.55;;
549;SDS011;20066;48.764;9.176;2023-03-01T02:22:22;36.30;;;18.15;;
549;SDS011;20066;48.764;9.176;2023-03-01T02:24:57;28.75;;;17.10;;
549;SDS011;20066;48.764;9.176;2023-03-01T02:27:36;31.13;;;16.60;;
549;SDS011;20066;48.764;9.176;2023-03-01T02:30:12;32.08;;;16.70;;
549;SDS011;20066;48.764;9.176;2023-03-01T02:32:40;29.73;;;15.80;;
549;SDS011;20066;48.764;9.176;2023-03-01T02:35:08;28.63;;;15.65;;
549;SDS011;20066;48.764;9.176;2023-03-01T02:37:39;34.88;;;16.58;;
549;SDS011;20066;48.764;9.176;2023-03-01T02:40:09;33.47;;;18.65;;
549;SDS011;20066;48.764;9.176;2023-03-01T02:42:45;31.88;;;17.38;;
549;SDS011;20066;48.764;9.176;2023-03-01T02:45:18;30.15;;;17.35;;
549;SDS011;20066;48.764;9.176;2023-03-01T02:47:47;32.95;;;17.20;;
549;SDS011;20066;48.764;9.176;2023-03-01T02:50:18;35.60;;;18.45;;
549;SDS011;20066;48.764;9.176;2023-03-01T02:53:04;35.60;;;18.40;;
549;SDS011;20066;48.764;9.176;2023-03-01T02:55:36;35.75;;;18.20;;
549;SDS011;20066;48.764;9.176;2023-03-01T02:58:04;30.92;;;17.80;;
549;SDS011;20066;48.764;9.176;2023-03-01T03:00:35;37.67;;;18.30;;
549;SDS011;20066;48.764;9.176;2023-03-01T03:03:06;31.70;;;18.15;;
549;SDS011;20066;48.764;9.176;2023-03-01T03:05:35;34.70;;;18.65;;
549;SDS011;20066;48.764;9.176;2023-03-01T03:08:03;34.97;;;17.45;;
549;SDS011;20066;48.764;9.176;2023-03-01T03:10:32;27.60;;;17.25;;
549;SDS011;20066;48.764;9.176;2023-03-01T03:13:02;33.65;;;18.45;;
549;SDS011;20066;48.764;9.176;2023-03-01T03:15:31;36.80;;;17.92;;
549;SDS011;20066;48.764;9.176;2023-03-01T03:18:04;32.70;;;17.52;;
549;SDS011;20066;48.764;9.176;2023-03-01T03:20:33;34.10;;;17.45;;
549;SDS011;20066;48.764;9.176;2023-03-01T03:23:02;35.13;;;16.80;;
549;SDS011;20066;48.764;9.176;2023-03-01T03:25:30;31.50;;;17.20;;
549;SDS011;20066;48.764;9.176;2023-03-01T03:27:58;33.20;;;16.05;;
549;SDS011;20066;48.764;9.176;2023-03-01T03:30:26;35.33;;;18.08;;
549;SDS011;20066;48.764;9.176;2023-03-01T03:32:56;32.65;;;17.38;;
549;SDS011;20066;48.764;9.176;2023-03-01T03:35:26;31.10;;;16.08;;
549;SDS011;20066;48.764;9.176;2023-03-01T03:37:57;36.55;;;20.25;;
549;SDS011;20066;48.764;9.176;2023-03-01T03:40:29;30.75;;;16.98;;
549;SDS011;20066;48.764;9.176;2023-03-01T03:42:59;30.15;;;16.30;;
549;SDS011;20066;48.764;9.176;2023-03-01T03:45:27;33.40;;;16.85;;
549;SDS011;20066;48.764;9.176;2023-03-01T03:47:55;35.33;;;17.25;;
549;SDS011;20066;48.764;9.176;2023-03-01T03:50:23;33.80;;;17.23;;
549;SDS011;20066;48.764;9.176;2023-03-01T03:52:52;35.38;;;17.58;;
549;SDS011;20066;48.764;9.176;2023-03-01T03:55:20;31.90;;;18.15;;
549;SDS011;20066;48.764;9.176;2023-03-01T03:57:48;34.85;;;17.90;;
549;SDS011;20066;48.764;9.176;2023-03-01T04:00:18;29.75;;;15.48;;
549;SDS011;20066;48.764;9.176;2023-03-01T04:02:50;35.65;;;17.85;;
549;SDS011;20066;48.764;9.176;2023-03-01T04:05:22;33.88;;;17.10;;
549;SDS011;20066;48.764;9.176;2023-03-01T04:07:50;32.10;;;16.52;;
549;SDS011;20066;48.764;9.176;2023-03-01T04:10:27;33.15;;;16.20;;
549;SDS011;20066;48.764;9.176;2023-03-01T04:12:56;36.15;;;18.10;;
549;SDS011;20066;48.764;9.176;2023-03-01T04:15:24;35.90;;;16.83;;
549;SDS011;20066;48.764;9.176;2023-03-01T04:17:54;34.80;;;17.05;;
549;SDS011;20066;48.764;9.176;2023-03-01T04:20:22;34.28;;;16.70;;
549;SDS011;20066;48.764;9.176;2023-03-01T04:22:59;35.28;;;17.20;;
549;SDS011;20066;48.764;9.176;2023-03-01T04:25:37;38.33;;;17.17;;
549;SDS011;20066;48.764;9.176;2023-03-01T04:28:06;29.02;;;16.60;;
549;SDS011;20066;48.764;9.176;2023-03-01T04:30:34;31.98;;;17.08;;
549;SDS011;20066;48.764;9.176;2023-03-01T04:33:03;30.75;;;16.00;;
549;SDS011;20066;48.764;9.176;2023-03-01T04:35:32;32.30;;;17.40;;
549;SDS011;20066;48.764;9.176;2023-03-01T04:38:02;29.35;;;16.35;;
549;SDS011;20066;48.764;9.176;2023-03-01T04:40:30;32.20;;;16.70;;
549;SDS011;20066;48.764;9.176;2023-03-01T04:42:59;32.63;;;16.70;;
549;SDS011;20066;48.764;9.176;2023-03-01T04:45:27;33.45;;;16.10;;
549;SDS011;20066;48.764;9.176;2023-03-01T04:47:55;35.83;;;17.40;;
549;SDS011;20066;48.764;9.176;2023-03-01T04:50:24;33.60;;;18.40;;
549;SDS011;20066;48.764;9.176;2023-03-01T04:52:52;33.55;;;17.38;;
549;SDS011;20066;48.764;9.176;2023-03-01T04:55:21;35.78;;;16.70;;
549;SDS011;20066;48.764;9.176;2023-03-01T04:57:52;33.67;;;17.40;;
549;SDS011;20066;48.764;9.176;2023-03-01T05:00:20;35.63;;;17.85;;
549;SDS011;20066;48.764;9.176;2023-03-01T05:02:50;31.33;;;16.30;;
549;SDS011;20066;48.764;9.176;2023-03-01T05:05:24;33.80;;;18.58;;
549;SDS011;20066;48.764;9.176;2023-03-01T05:07:54;32.25;;;15.57;;
549;SDS011;20066;48.764;9.176;2023-03-01T05:10:24;38.03;;;18.40;;
549;SDS011;20066;48.764;9.176;2023-03-01T05:12:53;36.17;;;17.95;;
549;SDS011;20066;48.764;9.176;2023-03-01T05:15:20;36.70;;;17.63;;
549;SDS011;20066;48.764;9.176;2023-03-01T05:17:52;32.50;;;17.92;;
549;SDS011;20066;48.764;9.176;2023-03-01T05:20:20;34.70;;;18.00;;
549;SDS011;20066;48.764;9.176;2023-03-01T05:22:50;38.42;;;18.38;;
549;SDS011;20066;48.764;9.176;2023-03-01T05:25:18;30.42;;;17.17;;
549;SDS011;20066;48.764;9.176;2023-03-01T05:27:49;34.00;;;18.13;;
549;SDS011;20066;48.764;9.176;2023-03-01T05:30:17;35.22;;;17.60;;
549;SDS011;20066;48.764;9.176;2023-03-01T05:32:46;38.35;;;18.88;;
549;SDS011;20066;48.764;9.176;2023-03-01T05:35:16;38.03;;;17.60;;
549;SDS011;20066;48.764;9.176;2023-03-01T05:37:46;34.45;;;17.48;;
549;SDS011;20066;48.764;9.176;2023-03-01T05:40:15;34.60;;;18.50;;
549;SDS011;20066;48.764;9.176;2023-03-01T05:42:46;36.42;;;19.10;;
549;SDS011;20066;48.764;9.176;2023-03-01T05:45:16;39.42;;;17.92;;
549;SDS011;20066;48.764;9.176;2023-03-01T05:47:45;36.85;;;18.15;;
549;SDS011;20066;48.764;9.176;2023-03-01T05:50:15;32.88;;;18.27;;
549;SDS011;20066;48.764;9.176;2023-03-01T05:52:45;37.72;;;18.05;;
549;SDS011;20066;48.764;9.176;2023-03-01T05:55:15;36.75;;;18.15;;
549;SDS011;20066;48.764;9.176;2023-03-01T05:57:43;34.15;;;17.75;;
549;SDS011;20066;48.764;9.176;2023-03-01T06:00:12;35.38;;;17.83;;
549;SDS011;20066;48.764;9.176;2023-03-01T06:02:47;32.80;;;17.35;;
549;SDS011;20066;48.764;9.176;2023-03-01T06:05:15;37.67;;;18.90;;
549;SDS011;20066;48.764;9.176;2023-03-01T06:07:44;39.00;;;18.25;;
549;SDS011;20066;48.764;9.176;2023-03-01T06:10:12;35.40;;;18.52;;
549;SDS011;20066;48.764;9.176;2023-03-01T06:12:41;36.67;;;19.17;;
549;SDS011;20066;48.764;9.176;2023-03-01T06:15:10;35.30;;;18.40;;
549;SDS011;20066;48.764;9.176;2023-03-01T06:17:40;41.65;;;18.60;;
549;SDS011;20066;48.764;9.176;2023-03-01T06:20:13;36.08;;;16.67;;
549;SDS011;20066;48.764;9.176;2023-03-01T06:22:44;35.63;;;16.60;;
549;SDS011;20066;48.764;9.176;2023-03-01T06:25:13;37.28;;;17.90;;
549;SDS011;20066;48.764;9.176;2023-03-01T06:27:42;37.67;;;18.85;;
549;SDS011;20066;48.764;9.176;2023-03-01T06:30:11;34.70;;;17.83;;
549;SDS011;20066;48.764;9.176;2023-03-01T06:32:40;34.63;;;19.05;;
549;SDS011;20066;48.764;9.176;2023-03-01T06:35:09;37.97;;;19.38;;
549;SDS011;20066;48.764;9.176;2023-03-01T06:37:40;39.97;;;17.83;;
549;SDS011;20066;48.764;9.176;2023-03-01T06:40:09;37.45;;;18.48;;
549;SDS011;20066;48.764;9.176;2023-03-01T06:42:40;36.85;;;17.95;;
549;SDS011;20066;48.764;9.176;2023-03-01T06:45:10;34.90;;;18.00;;
549;SDS011;20066;48.764;9.176;2023-03-01T06:47:38;38.45;;;20.10;;
549;SDS011;20066;48.764;9.176;2023-03-01T06:50:06;39.47;;;18.33;;
549;SDS011;20066;48.764;9.176;2023-03-01T06:52:37;39.58;;;18.33;;
549;SDS011;20066;48.764;9.176;2023-03-01T06:55:05;38.08;;;18.50;;
549;SDS011;20066;48.764;9.176;2023-03-01T06:57:34;37.88;;;20.05;;
549;SDS011;20066;48.764;9.176;2023-03-01T07:00:02;43.03;;;20.33;;
549;SDS011;20066;48.764;9.176;2023-03-01T07:02:33;40.90;;;20.13;;
549;SDS011;20066;48.764;9.176;2023-03-01T07:05:01;43.00;;;20.48;;
549;SDS011;20066;48.764;9.176;2023-03-01T07:07:29;39.85;;;20.05;;
549;SDS011;20066;48.764;9.176;2023-03-01T07:09:58;37.45;;;18.48;;
549;SDS011;20066;48.764;9.176;2023-03-01T07:12:26;39.50;;;20.83;;
549;SDS011;20066;48.764;9.176;2023-03-01T07:14:54;38.90;;;19.17;;
549;SDS011;20066;48.764;9.176;2023-03-01T07:17:21;37.78;;;20.45;;
549;SDS011;20066;48.764;9.176;2023-03-01T07:19:50;41.00;;;19.83;;
549;SDS011;20066;48.764;9.176;2023-03-01T07:22:18;42.20;;;21.73;;
549;SDS011;20066;48.764;9.176;2023-03-01T07:24:45;38.55;;;20.00;;
549;SDS011;20066;48.764;9.176;2023-03-01T07:27:14;39.97;;;21.48;;
549;SDS011;20066;48.764;9.176;2023-03-01T07:29:42;43.50;;;21.80;;
549;SDS011;20066;48.764;9.176;2023-03-01T07:32:10;46.28;;;22.17;;
549;SDS011;20066;48.764;9.176;2023-03-01T07:34:38;45.75;;;22.67;;
549;SDS011;20066;48.764;9.176;2023-03-01T07:37:06;44.92;;;21.95;;
549;SDS011;20066;48.764;9.176;2023-03-01T07:39:36;39.03;;;19.88;;
549;SDS011;20066;48.764;9.176;2023-03-01T07:42:08;36.80;;;19.38;;
549;SDS011;20066;48.764;9.176;2023-03-01T07:44:37;56.47;;;20.88;;
549;SDS011;20066;48.764;9.176;2023-03-01T07:47:05;39.65;;;19.35;;
549;SDS011;20066;48.764;9.176;2023-03-01T07:49:33;43.58;;;18.50;;
549;SDS011;20066;48.764;9.176;2023-03-01T07:52:01;39.35;;;19.38;;
549;SDS011;20066;48.764;9.176;2023-03-01T07:54:29;39.75;;;21.48;;
549;SDS011;20066;48.764;9.176;2023-03-01T07:56:57;39.10;;;20.98;;
549;SDS011;20066;48.764;9.176;2023-03-01T07:59:24;39.17;;;19.27;;
549;SDS011;20066;48.764;9.176;2023-03-01T08:01:56;35.33;;;18.75;;
549;SDS011;20066;48.764;9.176;2023-03-01T08:04:24;37.95;;;18.85;;
549;SDS011;20066;48.764;9.176;2023-03-01T08:06:53;40.08;;;18.42;;
549;SDS011;20066;48.764;9.176;2023-03-01T08:09:25;38.72;;;19.70;;
549;SDS011;20066;48.764;9.176;2023-03-01T08:11:53;38.88;;;19.35;;
549;SDS011;20066;48.764;9.176;2023-03-01T08:14:21;39.92;;;20.02;;
549;SDS011;20066;48.764;9.176;2023-03-01T08:16:49;39.13;;;19.92;;
549;SDS011;20066;48.764;9.176;2023-03-01T08:19:18;46.28;;;21.27;;
549;SDS011;20066;48.764;9.176;2023-03-01T08:21:46;46.92;;;19.63;;
549;SDS011;20066;48.764;9.176;2023-03-01T08:24:14;37.35;;;19.10;;
549;SDS011;20066;48.764;9.176;2023-03-01T08:26:42;42.15;;;19.40;;
549;SDS011;20066;48.764;9.176;2023-03-01T08:29:10;38.50;;;18.85;;
549;SDS011;20066;48.764;9.176;2023-03-01T08:31:38;40.47;;;18.95;;
549;SDS011;20066;48.764;9.176;2023-03-01T08:34:08;33.45;;;16.75;;
549;SDS011;20066;48.764;9.176;2023-03-01T08:36:39;35.08;;;16.48;;
549;SDS011;20066;48.764;9.176;2023-03-01T08:39:09;31.08;;;15.93;;
549;SDS011;20066;48.764;9.176;2023-03-01T08:41:38;32.90;;;16.60;;
549;SDS011;20066;48.764;9.176;2023-03-01T08:44:06;33.30;;;17.20;;
549;SDS011;20066;48.764;9.176;2023-03-01T08:46:35;38.43;;;17.40;;
549;SDS011;20066;48.764;9.176;2023-03-01T08:49:05;31.47;;;15.67;;
549;SDS011;20066;48.764;9.176;2023-03-01T08:51:34;29.63;;;15.70;;
549;SDS011;20066;48.764;9.176;2023-03-01T08:54:05;34.57;;;17.00;;
549;SDS011;20066;48.764;9.176;2023-03-01T08:56:33;35.03;;;17.53;;
549;SDS011;20066;48.764;9.176;2023-03-01T08:59:01;34.47;;;17.03;;
549;SDS011;20066;48.764;9.176;2023-03-01T09:01:31;31.63;;;15.90;;
549;SDS011;20066;48.764;9.176;2023-03-01T09:03:59;31.57;;;16.50;;
549;SDS011;20066;48.764;9.176;2023-03-01T09:06:29;30.33;;;15.80;;
549;SDS011;20066;48.764;9.176;2023-03-01T09:08:58;33.13;;;16.10;;
549;SDS011;20066;48.764;9.176;2023-03-01T09:11:27;28.70;;;16.10;;
549;SDS011;20066;48.764;9.176;2023-03-01T09:13:56;29.73;;;16.63;;
549;SDS011;20066;48.764;9.176;2023-03-01T09:16:24;31.73;;;16.13;;
549;SDS011;20066;48.764;9.176;2023-03-01T09:18:52;27.97;;;16.30;;
549;SDS011;20066;48.764;9.176;2023-03-01T09:21:22;28.80;;;16.03;;
549;SDS011;20066;48.764;9.176;2023-03-01T09:24:05;33.87;;;16.30;;
549;SDS011;20066;48.764;9.176;2023-03-01T09:26:36;29.80;;;16.40;;
549;SDS011;20066;48.764;9.176;2023-03-01T09:29:04;29.97;;;16.00;;
549;SDS011;20066;48.764;9.176;2023-03-01T09:31:32;31.60;;;16.30;;
549;SDS011;20066;48.764;9.176;2023-03-01T09:33:59;32.10;;;16.70;;
549;SDS011;20066;48.764;9.176;2023-03-01T09:36:27;29.20;;;16.00;;
549;SDS011;20066;48.764;9.176;2023-03-01T09:38:57;33.33;;;18.53;;
549;SDS011;20066;48.764;9.176;2023-03-01T09:41:38;31.00;;;18.10;;
549;SDS011;20066;48.764;9.176;2023-03-01T09:44:20;34.17;;;16.80;;
549;SDS011;20066;48.764;9.176;2023-03-01T09:46:55;31.17;;;17.17;;
549;SDS011;20066;48.764;9.176;2023-03-01T09:49:24;34.70;;;18.50;;
549;SDS011;20066;48.764;9.176;2023-03-01T09:51:55;37.50;;;18.33;;
549;SDS011;20066;48.764;9.176;2023-03-01T09:54:26;31.67;;;17.00;;
549;SDS011;20066;48.764;9.176;2023-03-01T09:59:56;30.97;;;17.80;;
549;SDS011;20066;48.764;9.176;2023-03-01T10:02:42;30.00;;;18.17;;
549;SDS011;20066;48.764;9.176;2023-03-01T10:05:14;31.60;;;16.90;;
549;SDS011;20066;48.764;9.176;2023-03-01T10:07:54;31.90;;;15.50;;
549;SDS011;20066;48.764;9.176;2023-03-01T10:10:33;32.60;;;18.37;;
549;SDS011;20066;48.764;9.176;2023-03-01T10:13:10;32.07;;;15.60;;
549;SDS011;20066;48.764;9.176;2023-03-01T10:15:45;34.37;;;17.40;;
549;SDS011;20066;48.764;9.176;2023-03-01T10:18:22;36.37;;;17.30;;
549;SDS011;20066;48.764;9.176;2023-03-01T10:20:53;36.90;;;17.40;;
549;SDS011;20066;48.764;9.176;2023-03-01T10:23:25;32.53;;;17.57;;
549;SDS011;20066;48.764;9.176;2023-03-01T10:25:59;29.67;;;15.73;;
549;SDS011;20066;48.764;9.176;2023-03-01T10:28:40;31.20;;;16.13;;
549;SDS011;20066;48.764;9.176;2023-03-01T10:31:22;30.90;;;15.87;;
549;SDS011;20066;48.764;9.176;2023-03-01T10:33:55;30.60;;;16.73;;
549;SDS011;20066;48.764;9.176;2023-03-01T10:36:25;31.87;;;15.57;;
549;SDS011;20066;48.764;9.176;2023-03-01T10:38:53;29.87;;;16.63;;
549;SDS011;20066;48.764;9.176;2023-03-01T10:41:23;29.00;;;15.83;;
549;SDS011;20066;48.764;9.176;2023-03-01T10:43:54;29.13;;;16.30;;
549;SDS011;20066;48.764;9.176;2023-03-01T10:46:25;28.93;;;16.00;;
549;SDS011;20066;48.764;9.176;2023-03-01T10:51:52;35.27;;;15.63;;
549;SDS011;20066;48.764;9.176;2023-03-01T10:54:22;28.43;;;15.30;;
549;SDS011;20066;48.764;9.176;2023-03-01T10:56:53;31.87;;;15.40;;
549;SDS011;20066;48.764;9.176;2023-03-01T10:59:28;30.87;;;15.60;;
549;SDS011;20066;48.764;9.176;2023-03-01T11:02:03;31.30;;;15.27;;
549;SDS011;20066;48.764;9.176;2023-03-01T11:05:00;27.13;;;15.00;;
549;SDS011;20066;48.764;9.176;2023-03-01T11:07:29;31.97;;;16.20;;
549;SDS011;20066;48.764;9.176;2023-03-01T11:09:58;29.37;;;13.60;;
549;SDS011;20066;48.764;9.176;2023-03-01T11:12:26;28.87;;;15.67;;
549;SDS011;20066;48.764;9.176;2023-03-01T11:14:57;30.53;;;15.80;;
549;SDS011;20066;48.764;9.176;2023-03-01T11:17:27;27.87;;;14.90;;
549;SDS011;20066;48.764;9.176;2023-03-01T11:20:06;26.33;;;14.00;;
549;SDS011;20066;48.764;9.176;2023-03-01T11:22:45;25.23;;;14.27;;
549;SDS011;20066;48.764;9.176;2023-03-01T11:25:16;26.00;;;15.00;;
549;SDS011;20066;48.764;9.176;2023-03-01T11:27:55;29.03;;;15.63;;
549;SDS011;20066;48.764;9.176;2023-03-01T11:30:27;26.90;;;15.20;;
549;SDS011;20066;48.764;9.176;2023-03-01T11:33:08;31.20;;;14.90;;
549;SDS011;20066;48.764;9.176;2023-03-01T11:35:41;30.83;;;15.50;;
549;SDS011;20066;48.764;9.176;2023-03-01T11:38:15;30.00;;;15.33;;
549;SDS011;20066;48.764;9.176;2023-03-01T11:40:48;27.80;;;15.07;;
549;SDS011;20066;48.764;9.176;2023-03-01T11:43:23;26.13;;;13.80;;
549;SDS011;20066;48.764;9.176;2023-03-01T11:46:18;27.97;;;14.23;;
549;SDS011;20066;48.764;9.176;2023-03-01T11:49:30;36.97;;;16.57;;
549;SDS011;20066;48.764;9.176;2023-03-01T11:52:20;30.47;;;16.13;;
549;SDS011;20066;48.764;9.176;2023-03-01T11:54:59;33.73;;;17.23;;
549;SDS011;20066;48.764;9.176;2023-03-01T11:57:46;29.27;;;15.63;;
549;SDS011;20066;48.764;9.176;2023-03-01T12:00:37;28.10;;;15.60;;
549;SDS011;20066;48.764;9.176;2023-03-01T12:03:19;30.45;;;15.80;;
549;SDS011;20066;48.764;9.176;2023-03-01T12:09:06;27.92;;;15.38;;
549;SDS011;20066;48.764;9.176;2023-03-01T12:11:51;32.83;;;16.38;;
549;SDS011;20066;48.764;9.176;2023-03-01T12:14:45;33.30;;;15.93;;
549;SDS011;20066;48.764;9.176;2023-03-01T12:20:24;30.45;;;16.30;;
549;SDS011;20066;48.764;9.176;2023-03-01T12:26:02;31.73;;;15.65;;
549;SDS011;20066;48.764;9.176;2023-03-01T12:28:51;31.63;;;16.38;;
549;SDS011;20066;48.764;9.176;2023-03-01T12:31:32;28.17;;;14.77;;
549;SDS011;20066;48.764;9.176;2023-03-01T12:34:24;30.65;;;15.25;;
549;SDS011;20066;48.764;9.176;2023-03-01T12:37:17;28.58;;;14.68;;
549;SDS011;20066;48.764;9.176;2023-03-01T12:40:04;28.73;;;13.65;;
549;SDS011;20066;48.764;9.176;2023-03-01T12:42:48;28.83;;;14.95;;
549;SDS011;20066;48.764;9.176;2023-03-01T12:45:31;29.83;;;14.98;;
549;SDS011;20066;48.764;9.176;2023-03-01T12:48:15;26.30;;;14.50;;
549;SDS011;20066;48.764;9.176;2023-03-01T12:50:52;27.45;;;14.00;;
549;SDS011;20066;48.764;9.176;2023-03-01T12:53:26;28.08;;;14.10;;
549;SDS011;20066;48.764;9.176;2023-03-01T12:55:58;29.35;;;14.13;;
549;SDS011;20066;48.764;9.176;2023-03-01T12:58:29;26.38;;;13.98;;
549;SDS011;20066;48.764;9.176;2023-03-01T13:01:18;29.30;;;15.45;;
549;SDS011;20066;48.764;9.176;2023-03-01T13:04:05;26.60;;;13.82;;
549;SDS011;20066;48.764;9.176;2023-03-01T13:06:41;25.15;;;13.40;;
549;SDS011;20066;48.764;9.176;2023-03-01T13:09:22;27.80;;;13.25;;
549;SDS011;20066;48.764;9.176;2023-03-01T13:11:54;27.38;;;14.23;;
549;SDS011;20066;48.764;9.176;2023-03-01T13:14:35;25.77;;;14.25;;
549;SDS011;20066;48.764;9.176;2023-03-01T13:17:04;23.75;;;12.30;;
549;SDS011;20066;48.764;9.176;2023-03-01T13:19:57;28.65;;;14.90;;
549;SDS011;20066;48.764;9.176;2023-03-01T13:22:27;29.80;;;14.85;;
549;SDS011;20066;48.764;9.176;2023-03-01T13:25:02;23.88;;;12.35;;
549;SDS011;20066;48.764;9.176;2023-03-01T13:27:39;23.50;;;12.68;;
549;SDS011;20066;48.764;9.176;2023-03-01T13:39:28;24.05;;;12.95;;
549;SDS011;20066;48.764;9.176;2023-03-01T13:42:01;25.55;;;13.75;;
549;SDS011;20066;48.764;9.176;2023-03-01T13:44:30;27.42;;;13.80;;
549;SDS011;20066;48.764;9.176;2023-03-01T13:47:05;27.92;;;13.93;;
549;SDS011;20066;48.764;9.176;2023-03-01T13:49:45;30.02;;;13.85;;
549;SDS011;20066;48.764;9.176;2023-03-01T13:52:28;32.30;;;15.98;;
549;SDS011;20066;48.764;9.176;2023-03-01T13:55:02;29.95;;;14.63;;
549;SDS011;20066;48.764;9.176;2023-03-01T13:57:35;30.40;;;14.38;;
549;SDS011;20066;48.764;9.176;2023-03-01T14:00:05;30.27;;;15.40;;
549;SDS011;20066;48.764;9.176;2023-03-01T14:02:35;30.48;;;15.73;;
549;SDS011;20066;48.764;9.176;2023-03-01T14:05:03;31.58;;;14.98;;
549;SDS011;20066;48.764;9.176;2023-03-01T14:07:38;30.48;;;15.55;;
549;SDS011;20066;48.764;9.176;2023-03-01T14:10:08;34.03;;;16.25;;
549;SDS011;20066;48.764;9.176;2023-03-01T14:12:42;30.92;;;17.25;;
549;SDS011;20066;48.764;9.176;2023-03-01T14:15:18;29.80;;;15.25;;
549;SDS011;20066;48.764;9.176;2023-03-01T14:17:55;36.00;;;16.95;;
549;SDS011;20066;48.764;9.176;2023-03-01T14:20:30;30.88;;;16.23;;
549;SDS011;20066;48.764;9.176;2023-03-01T14:23:08;36.38;;;16.73;;
549;SDS011;20066;48.764;9.176;2023-03-01T14:25:45;33.65;;;16.48;;
549;SDS011;20066;48.764;9.176;2023-03-01T14:28:17;30.50;;;15.45;;
549;SDS011;20066;48.764;9.176;2023-03-01T14:30:48;35.25;;;17.52;;
549;SDS011;20066;48.764;9.176;2023-03-01T14:33:18;35.72;;;16.20;;
549;SDS011;20066;48.764;9.176;2023-03-01T14:35:52;32.28;;;16.48;;
549;SDS011;20066;48.764;9.176;2023-03-01T14:38:23;32.35;;;15.65;;
549;SDS011;20066;48.764;9.176;2023-03-01T14:40:57;34.45;;;16.42;;
549;SDS011;20066;48.764;9.176;2023-03-01T14:43:29;35.67;;;17.15;;
549;SDS011;20066;48.764;9.176;2023-03-01T14:45:58;33.97;;;16.92;;
549;SDS011;20066;48.764;9.176;2023-03-01T14:48:27;30.30;;;16.58;;
549;SDS011;20066;48.764;9.176;2023-03-01T14:50:57;30.25;;;16.20;;
549;SDS011;20066;48.764;9.176;2023-03-01T14:53:26;30.77;;;15.43;;
549;SDS011;20066;48.764;9.176;2023-03-01T14:56:12;39.70;;;16.48;;
549;SDS011;20066;48.764;9.176;2023-03-01T14:58:43;32.10;;;17.35;;
549;SDS011;20066;48.764;9.176;2023-03-01T15:01:14;31.90;;;17.17;;
549;SDS011;20066;48.764;9.176;2023-03-01T15:03:45;30.52;;;15.80;;
549;SDS011;20066;48.764;9.176;2023-03-01T15:06:15;33.13;;;16.40;;
549;SDS011;20066;48.764;9.176;2023-03-01T15:08:46;30.70;;;15.38;;
549;SDS011;20066;48.764;9.176;2023-03-01T15:11:19;31.73;;;16.02;;
549;SDS011;20066;48.764;9.176;2023-03-01T15:13:52;29.38;;;15.35;;
549;SDS011;20066;48.764;9.176;2023-03-01T15:16:21;30.30;;;15.80;;
549;SDS011;20066;48.764;9.176;2023-03-01T15:18:53;32.35;;;16.10;;
549;SDS011;20066;48.764;9.176;2023-03-01T15:21:23;29.10;;;14.88;;
549;SDS011;20066;48.764;9.176;2023-03-01T15:23:54;31.98;;;15.68;;
549;SDS011;20066;48.764;9.176;2023-03-01T15:26:25;31.83;;;16.88;;
549;SDS011;20066;48.764;9.176;2023-03-01T15:28:59;33.72;;;16.55;;
549;SDS011;20066;48.764;9.176;2023-03-01T15:31:28;34.28;;;16.40;;
549;SDS011;20066;48.764;9.176;2023-03-01T15:34:07;33.58;;;16.98;;
549;SDS011;20066;48.764;9.176;2023-03-01T15:36:39;30.63;;;16.85;;
549;SDS011;20066;48.764;9.176;2023-03-01T15:42:05;33.00;;;17.02;;
549;SDS011;20066;48.764;9.176;2023-03-01T15:44:37;33.97;;;16.73;;